sensor_id;sensor_type;location;lat;lon;timestamp;P1;durP1;ratioP1;P2;durP2;ratioP2
56455;SDS011;42354;53.218;6.564;2023-07-24T00:01:09;15.93;;;7.22;;
56455;SDS011;42354;53.218;6.564;2023-07-24T00:03:34;13.45;;;5.80;;
56455;SDS011;42354;53.218;6.564;2023-07-24T00:06:00;15.75;;;6.43;;
56455;SDS011;42354;53.218;6.564;2023-07-24T00:08:26;12.65;;;5.97;;
56455;SDS011;42354;53.218;6.564;2023-07-24T00:10:51;13.38;;;6.18;;
56455;SDS011;42354;53.218;6.564;2023-07-24T00:13:17;11.82;;;6.18;;
56455;SDS011;42354;53.218;6.564;2023-07-24T00:15:42;16.67;;;6.53;;
56455;SDS011;42354;53.218;6.564;2023-07-24T00:18:08;15.25;;;6.15;;
56455;SDS011;42354;53.218;6.564;2023-07-24T00:20:33;15.05;;;6.47;;
56455;SDS011;42354;53.218;6.564;2023-07-24T00:22:59;14.55;;;5.90;;
56455;SDS011;42354;53.218;6.564;2023-07-24T00:25:24;15.65;;;6.13;;
56455;SDS011;42354;53.218;6.564;2023-07-24T00:27:50;10.65;;;5.90;;
56455;SDS011;42354;53.218;6.564;2023-07-24T00:30:15;15.07;;;5.57;;
56455;SDS011;42354;53.218;6.564;2023-07-24T00:32:41;13.57;;;6.30;;
56455;SDS011;42354;53.218;6.564;2023-07-24T00:35:06;14.43;;;6.40;;
56455;SDS011;42354;53.218;6.564;2023-07-24T00:37:33;13.32;;;6.85;;
56455;SDS011;42354;53.218;6.564;2023-07-24T00:39:59;14.65;;;6.13;;
56455;SDS011;42354;53.218;6.564;2023-07-24T00:42:24;14.45;;;6.10;;
56455;SDS011;42354;53.218;6.564;2023-07-24T00:44:49;13.80;;;6.47;;
56455;SDS011;42354;53.218;6.564;2023-07-24T00:47:15;13.10;;;6.38;;
56455;SDS011;42354;53.218;6.564;2023-07-24T00:49:41;13.32;;;6.18;;
56455;SDS011;42354;53.218;6.564;2023-07-24T00:52:07;14.48;;;7.32;;
56455;SDS011;42354;53.218;6.564;2023-07-24T00:54:33;15.63;;;7.07;;
56455;SDS011;42354;53.218;6.564;2023-07-24T00:56:59;18.20;;;6.63;;
56455;SDS011;42354;53.218;6.564;2023-07-24T00:59:25;13.13;;;6.88;;
56455;SDS011;42354;53.218;6.564;2023-07-24T01:01:51;13.85;;;6.65;;
56455;SDS011;42354;53.218;6.564;2023-07-24T01:04:17;14.75;;;6.68;;
56455;SDS011;42354;53.218;6.564;2023-07-24T01:06:43;14.73;;;6.88;;
56455;SDS011;42354;53.218;6.564;2023-07-24T01:09:09;14.88;;;7.18;;
56455;SDS011;42354;53.218;6.564;2023-07-24T01:11:40;17.70;;;7.07;;
56455;SDS011;42354;53.218;6.564;2023-07-24T01:14:13;17.90;;;6.95;;
56455;SDS011;42354;53.218;6.564;2023-07-24T01:16:57;17.15;;;7.22;;
56455;SDS011;42354;53.218;6.564;2023-07-24T01:19:46;14.82;;;7.03;;
56455;SDS011;42354;53.218;6.564;2023-07-24T01:27:34;19.00;;;8.20;;
56455;SDS011;42354;53.218;6.564;2023-07-24T01:30:00;17.80;;;8.60;;
56455;SDS011;42354;53.218;6.564;2023-07-24T01:32:25;21.80;;;8.25;;
56455;SDS011;42354;53.218;6.564;2023-07-24T01:34:51;17.30;;;8.55;;
56455;SDS011;42354;53.218;6.564;2023-07-24T01:37:18;20.85;;;8.98;;
56455;SDS011;42354;53.218;6.564;2023-07-24T01:39:46;18.75;;;9.10;;
56455;SDS011;42354;53.218;6.564;2023-07-24T01:42:12;18.05;;;9.27;;
56455;SDS011;42354;53.218;6.564;2023-07-24T01:44:39;19.67;;;9.50;;
56455;SDS011;42354;53.218;6.564;2023-07-24T01:47:04;17.52;;;9.50;;
56455;SDS011;42354;53.218;6.564;2023-07-24T01:49:30;17.25;;;9.77;;
56455;SDS011;42354;53.218;6.564;2023-07-24T01:51:55;15.70;;;9.38;;
56455;SDS011;42354;53.218;6.564;2023-07-24T01:54:22;22.55;;;10.77;;
56455;SDS011;42354;53.218;6.564;2023-07-24T01:56:47;20.98;;;10.45;;
56455;SDS011;42354;53.218;6.564;2023-07-24T01:59:13;23.35;;;10.85;;
56455;SDS011;42354;53.218;6.564;2023-07-24T02:01:38;23.15;;;11.77;;
56455;SDS011;42354;53.218;6.564;2023-07-24T02:04:04;19.75;;;10.85;;
56455;SDS011;42354;53.218;6.564;2023-07-24T02:06:29;17.98;;;10.95;;
56455;SDS011;42354;53.218;6.564;2023-07-24T02:08:54;22.92;;;12.30;;
56455;SDS011;42354;53.218;6.564;2023-07-24T02:11:20;22.73;;;11.98;;
56455;SDS011;42354;53.218;6.564;2023-07-24T02:13:46;19.88;;;11.90;;
56455;SDS011;42354;53.218;6.564;2023-07-24T02:16:12;23.20;;;12.60;;
56455;SDS011;42354;53.218;6.564;2023-07-24T02:18:38;22.90;;;12.57;;
56455;SDS011;42354;53.218;6.564;2023-07-24T02:21:05;20.83;;;13.10;;
56455;SDS011;42354;53.218;6.564;2023-07-24T02:23:31;23.10;;;13.40;;
56455;SDS011;42354;53.218;6.564;2023-07-24T02:25:56;23.40;;;13.50;;
56455;SDS011;42354;53.218;6.564;2023-07-24T02:28:22;23.13;;;13.88;;
56455;SDS011;42354;53.218;6.564;2023-07-24T02:30:47;20.95;;;12.82;;
56455;SDS011;42354;53.218;6.564;2023-07-24T02:33:13;21.17;;;13.32;;
56455;SDS011;42354;53.218;6.564;2023-07-24T02:35:39;24.80;;;14.02;;
56455;SDS011;42354;53.218;6.564;2023-07-24T02:38:05;23.77;;;13.63;;
56455;SDS011;42354;53.218;6.564;2023-07-24T02:40:30;23.02;;;13.40;;
56455;SDS011;42354;53.218;6.564;2023-07-24T02:42:56;23.30;;;13.68;;
56455;SDS011;42354;53.218;6.564;2023-07-24T02:45:21;23.63;;;13.73;;
56455;SDS011;42354;53.218;6.564;2023-07-24T02:47:46;21.33;;;13.52;;
56455;SDS011;42354;53.218;6.564;2023-07-24T02:50:12;19.40;;;13.20;;
56455;SDS011;42354;53.218;6.564;2023-07-24T02:52:37;26.27;;;14.80;;
56455;SDS011;42354;53.218;6.564;2023-07-24T02:55:03;25.17;;;14.95;;
56455;SDS011;42354;53.218;6.564;2023-07-24T02:57:30;25.92;;;14.48;;
56455;SDS011;42354;53.218;6.564;2023-07-24T02:59:55;22.75;;;13.57;;
56455;SDS011;42354;53.218;6.564;2023-07-24T03:02:21;24.67;;;13.90;;
56455;SDS011;42354;53.218;6.564;2023-07-24T03:04:46;22.42;;;13.80;;
56455;SDS011;42354;53.218;6.564;2023-07-24T03:07:11;26.75;;;14.13;;
56455;SDS011;42354;53.218;6.564;2023-07-24T03:09:37;24.33;;;14.00;;
56455;SDS011;42354;53.218;6.564;2023-07-24T03:12:02;23.08;;;13.48;;
56455;SDS011;42354;53.218;6.564;2023-07-24T03:14:28;20.58;;;12.57;;
56455;SDS011;42354;53.218;6.564;2023-07-24T03:16:53;24.13;;;13.73;;
56455;SDS011;42354;53.218;6.564;2023-07-24T03:19:19;24.70;;;12.32;;
56455;SDS011;42354;53.218;6.564;2023-07-24T03:21:45;20.98;;;11.50;;
56455;SDS011;42354;53.218;6.564;2023-07-24T03:24:11;19.50;;;11.68;;
56455;SDS011;42354;53.218;6.564;2023-07-24T03:26:36;21.73;;;11.25;;
56455;SDS011;42354;53.218;6.564;2023-07-24T03:29:01;23.88;;;11.25;;
56455;SDS011;42354;53.218;6.564;2023-07-24T03:31:27;23.85;;;11.00;;
56455;SDS011;42354;53.218;6.564;2023-07-24T03:33:52;19.10;;;10.23;;
56455;SDS011;42354;53.218;6.564;2023-07-24T03:36:17;17.98;;;10.27;;
56455;SDS011;42354;53.218;6.564;2023-07-24T03:38:43;19.55;;;10.77;;
56455;SDS011;42354;53.218;6.564;2023-07-24T03:41:08;18.52;;;11.13;;
56455;SDS011;42354;53.218;6.564;2023-07-24T03:43:34;18.92;;;10.32;;
56455;SDS011;42354;53.218;6.564;2023-07-24T03:45:59;21.65;;;10.88;;
56455;SDS011;42354;53.218;6.564;2023-07-24T03:48:24;19.85;;;11.10;;
56455;SDS011;42354;53.218;6.564;2023-07-24T03:50:50;21.83;;;10.82;;
56455;SDS011;42354;53.218;6.564;2023-07-24T03:53:22;17.17;;;10.52;;
56455;SDS011;42354;53.218;6.564;2023-07-24T03:55:47;17.70;;;10.23;;
56455;SDS011;42354;53.218;6.564;2023-07-24T03:58:13;15.23;;;10.52;;
56455;SDS011;42354;53.218;6.564;2023-07-24T04:00:38;14.85;;;9.35;;
56455;SDS011;42354;53.218;6.564;2023-07-24T04:03:04;20.83;;;10.38;;
56455;SDS011;42354;53.218;6.564;2023-07-24T04:05:29;18.60;;;10.15;;
56455;SDS011;42354;53.218;6.564;2023-07-24T04:07:54;18.85;;;9.95;;
56455;SDS011;42354;53.218;6.564;2023-07-24T04:10:20;17.73;;;9.45;;
56455;SDS011;42354;53.218;6.564;2023-07-24T04:12:45;16.55;;;9.38;;
56455;SDS011;42354;53.218;6.564;2023-07-24T04:15:11;17.58;;;10.02;;
56455;SDS011;42354;53.218;6.564;2023-07-24T04:17:36;18.17;;;9.48;;
56455;SDS011;42354;53.218;6.564;2023-07-24T04:20:04;16.98;;;9.90;;
56455;SDS011;42354;53.218;6.564;2023-07-24T04:22:30;16.02;;;9.45;;
56455;SDS011;42354;53.218;6.564;2023-07-24T04:24:55;17.90;;;9.27;;
56455;SDS011;42354;53.218;6.564;2023-07-24T04:27:20;17.92;;;9.65;;
56455;SDS011;42354;53.218;6.564;2023-07-24T04:29:46;16.63;;;8.88;;
56455;SDS011;42354;53.218;6.564;2023-07-24T04:32:11;17.20;;;9.95;;
56455;SDS011;42354;53.218;6.564;2023-07-24T04:34:37;15.88;;;9.82;;
56455;SDS011;42354;53.218;6.564;2023-07-24T04:37:02;17.77;;;10.25;;
56455;SDS011;42354;53.218;6.564;2023-07-24T04:39:28;17.90;;;10.68;;
56455;SDS011;42354;53.218;6.564;2023-07-24T04:41:53;32.88;;;11.63;;
56455;SDS011;42354;53.218;6.564;2023-07-24T04:44:19;15.95;;;11.10;;
56455;SDS011;42354;53.218;6.564;2023-07-24T04:46:44;17.73;;;10.45;;
56455;SDS011;42354;53.218;6.564;2023-07-24T04:49:09;20.85;;;11.90;;
56455;SDS011;42354;53.218;6.564;2023-07-24T04:51:35;17.50;;;11.05;;
56455;SDS011;42354;53.218;6.564;2023-07-24T04:54:00;18.02;;;11.45;;
56455;SDS011;42354;53.218;6.564;2023-07-24T04:56:25;19.35;;;11.40;;
56455;SDS011;42354;53.218;6.564;2023-07-24T04:58:51;17.08;;;11.32;;
56455;SDS011;42354;53.218;6.564;2023-07-24T05:01:16;17.15;;;11.57;;
56455;SDS011;42354;53.218;6.564;2023-07-24T05:03:42;19.60;;;11.98;;
56455;SDS011;42354;53.218;6.564;2023-07-24T05:06:07;21.08;;;11.73;;
56455;SDS011;42354;53.218;6.564;2023-07-24T05:08:32;18.35;;;11.65;;
56455;SDS011;42354;53.218;6.564;2023-07-24T05:10:58;18.08;;;11.52;;
56455;SDS011;42354;53.218;6.564;2023-07-24T05:13:24;21.00;;;11.50;;
56455;SDS011;42354;53.218;6.564;2023-07-24T05:15:49;19.45;;;11.00;;
56455;SDS011;42354;53.218;6.564;2023-07-24T05:18:15;19.40;;;10.90;;
56455;SDS011;42354;53.218;6.564;2023-07-24T05:20:47;19.98;;;11.45;;
56455;SDS011;42354;53.218;6.564;2023-07-24T05:23:13;19.10;;;11.75;;
56455;SDS011;42354;53.218;6.564;2023-07-24T05:25:40;19.70;;;11.43;;
56455;SDS011;42354;53.218;6.564;2023-07-24T05:28:05;19.48;;;11.35;;
56455;SDS011;42354;53.218;6.564;2023-07-24T05:30:32;19.13;;;11.70;;
56455;SDS011;42354;53.218;6.564;2023-07-24T05:32:57;15.13;;;10.18;;
56455;SDS011;42354;53.218;6.564;2023-07-24T05:35:23;17.27;;;11.02;;
56455;SDS011;42354;53.218;6.564;2023-07-24T05:37:48;17.27;;;11.10;;
56455;SDS011;42354;53.218;6.564;2023-07-24T05:40:13;18.13;;;11.20;;
56455;SDS011;42354;53.218;6.564;2023-07-24T05:42:39;18.38;;;11.52;;
56455;SDS011;42354;53.218;6.564;2023-07-24T05:45:07;16.73;;;10.48;;
56455;SDS011;42354;53.218;6.564;2023-07-24T05:47:33;18.25;;;10.93;;
56455;SDS011;42354;53.218;6.564;2023-07-24T05:49:59;16.02;;;11.18;;
56455;SDS011;42354;53.218;6.564;2023-07-24T05:52:24;19.67;;;11.40;;
56455;SDS011;42354;53.218;6.564;2023-07-24T05:54:50;20.73;;;12.00;;
56455;SDS011;42354;53.218;6.564;2023-07-24T05:57:15;18.17;;;11.65;;
56455;SDS011;42354;53.218;6.564;2023-07-24T05:59:41;18.55;;;11.05;;
56455;SDS011;42354;53.218;6.564;2023-07-24T06:02:06;16.73;;;11.20;;
56455;SDS011;42354;53.218;6.564;2023-07-24T06:04:33;18.30;;;10.93;;
56455;SDS011;42354;53.218;6.564;2023-07-24T06:06:58;18.67;;;10.68;;
56455;SDS011;42354;53.218;6.564;2023-07-24T06:09:24;20.02;;;12.02;;
56455;SDS011;42354;53.218;6.564;2023-07-24T06:11:50;18.30;;;11.02;;
56455;SDS011;42354;53.218;6.564;2023-07-24T06:14:15;18.30;;;10.88;;
56455;SDS011;42354;53.218;6.564;2023-07-24T06:16:41;19.25;;;11.95;;
56455;SDS011;42354;53.218;6.564;2023-07-24T06:19:06;16.23;;;10.85;;
56455;SDS011;42354;53.218;6.564;2023-07-24T06:21:32;17.77;;;10.93;;
56455;SDS011;42354;53.218;6.564;2023-07-24T06:23:57;19.55;;;11.13;;
56455;SDS011;42354;53.218;6.564;2023-07-24T06:26:22;16.30;;;10.18;;
56455;SDS011;42354;53.218;6.564;2023-07-24T06:28:48;16.25;;;10.60;;
56455;SDS011;42354;53.218;6.564;2023-07-24T06:31:13;17.40;;;10.75;;
56455;SDS011;42354;53.218;6.564;2023-07-24T06:33:39;18.23;;;10.48;;
56455;SDS011;42354;53.218;6.564;2023-07-24T06:36:08;17.55;;;9.95;;
56455;SDS011;42354;53.218;6.564;2023-07-24T06:38:34;14.95;;;10.15;;
56455;SDS011;42354;53.218;6.564;2023-07-24T06:40:59;16.05;;;10.32;;
56455;SDS011;42354;53.218;6.564;2023-07-24T06:43:25;18.05;;;10.25;;
56455;SDS011;42354;53.218;6.564;2023-07-24T06:45:50;17.63;;;9.45;;
56455;SDS011;42354;53.218;6.564;2023-07-24T06:48:16;18.70;;;10.23;;
56455;SDS011;42354;53.218;6.564;2023-07-24T06:50:41;16.27;;;9.90;;
56455;SDS011;42354;53.218;6.564;2023-07-24T06:53:07;18.20;;;10.25;;
56455;SDS011;42354;53.218;6.564;2023-07-24T06:55:32;18.55;;;11.18;;
56455;SDS011;42354;53.218;6.564;2023-07-24T06:57:57;17.38;;;9.88;;
56455;SDS011;42354;53.218;6.564;2023-07-24T07:00:23;17.40;;;10.63;;
56455;SDS011;42354;53.218;6.564;2023-07-24T07:02:48;14.55;;;9.65;;
56455;SDS011;42354;53.218;6.564;2023-07-24T07:05:14;19.98;;;9.40;;
56455;SDS011;42354;53.218;6.564;2023-07-24T07:07:39;18.75;;;9.88;;
56455;SDS011;42354;53.218;6.564;2023-07-24T07:10:05;17.05;;;10.35;;
56455;SDS011;42354;53.218;6.564;2023-07-24T07:12:33;15.68;;;9.52;;
56455;SDS011;42354;53.218;6.564;2023-07-24T07:14:59;18.20;;;10.32;;
56455;SDS011;42354;53.218;6.564;2023-07-24T07:17:24;14.40;;;9.23;;
56455;SDS011;42354;53.218;6.564;2023-07-24T07:19:50;15.98;;;9.10;;
56455;SDS011;42354;53.218;6.564;2023-07-24T07:22:15;16.65;;;9.68;;
56455;SDS011;42354;53.218;6.564;2023-07-24T07:24:40;14.05;;;8.55;;
56455;SDS011;42354;53.218;6.564;2023-07-24T07:27:06;15.32;;;8.77;;
56455;SDS011;42354;53.218;6.564;2023-07-24T07:29:31;15.82;;;8.65;;
56455;SDS011;42354;53.218;6.564;2023-07-24T07:31:57;17.23;;;8.90;;
56455;SDS011;42354;53.218;6.564;2023-07-24T07:34:22;19.38;;;9.45;;
56455;SDS011;42354;53.218;6.564;2023-07-24T07:36:48;16.70;;;8.82;;
56455;SDS011;42354;53.218;6.564;2023-07-24T07:39:13;16.42;;;8.38;;
56455;SDS011;42354;53.218;6.564;2023-07-24T07:41:39;16.10;;;9.35;;
56455;SDS011;42354;53.218;6.564;2023-07-24T07:44:04;16.17;;;9.63;;
56455;SDS011;42354;53.218;6.564;2023-07-24T07:46:29;17.02;;;9.20;;
56455;SDS011;42354;53.218;6.564;2023-07-24T07:48:55;23.13;;;10.90;;
56455;SDS011;42354;53.218;6.564;2023-07-24T07:51:20;19.05;;;10.57;;
56455;SDS011;42354;53.218;6.564;2023-07-24T07:53:46;22.88;;;9.73;;
56455;SDS011;42354;53.218;6.564;2023-07-24T07:56:11;18.65;;;9.48;;
56455;SDS011;42354;53.218;6.564;2023-07-24T07:58:37;20.58;;;9.70;;
56455;SDS011;42354;53.218;6.564;2023-07-24T08:01:05;15.38;;;8.25;;
56455;SDS011;42354;53.218;6.564;2023-07-24T08:03:31;16.00;;;8.93;;
56455;SDS011;42354;53.218;6.564;2023-07-24T08:05:57;16.27;;;8.57;;
56455;SDS011;42354;53.218;6.564;2023-07-24T08:08:23;15.55;;;9.23;;
56455;SDS011;42354;53.218;6.564;2023-07-24T08:10:48;22.73;;;9.45;;
56455;SDS011;42354;53.218;6.564;2023-07-24T08:13:14;14.75;;;8.32;;
56455;SDS011;42354;53.218;6.564;2023-07-24T08:15:39;19.58;;;9.05;;
56455;SDS011;42354;53.218;6.564;2023-07-24T08:18:05;19.13;;;8.90;;
56455;SDS011;42354;53.218;6.564;2023-07-24T08:20:31;15.13;;;8.57;;
56455;SDS011;42354;53.218;6.564;2023-07-24T08:22:57;19.95;;;9.25;;
56455;SDS011;42354;53.218;6.564;2023-07-24T08:25:22;14.10;;;7.90;;
56455;SDS011;42354;53.218;6.564;2023-07-24T08:27:47;15.07;;;8.35;;
56455;SDS011;42354;53.218;6.564;2023-07-24T08:30:13;14.02;;;8.30;;
56455;SDS011;42354;53.218;6.564;2023-07-24T08:32:39;17.00;;;8.20;;
56455;SDS011;42354;53.218;6.564;2023-07-24T08:35:05;14.85;;;7.90;;
56455;SDS011;42354;53.218;6.564;2023-07-24T08:37:31;14.20;;;7.80;;
56455;SDS011;42354;53.218;6.564;2023-07-24T08:39:56;14.57;;;7.88;;
56455;SDS011;42354;53.218;6.564;2023-07-24T08:42:22;16.90;;;8.27;;
56455;SDS011;42354;53.218;6.564;2023-07-24T08:44:50;15.25;;;7.97;;
56455;SDS011;42354;53.218;6.564;2023-07-24T08:47:18;16.60;;;8.27;;
56455;SDS011;42354;53.218;6.564;2023-07-24T08:49:44;15.88;;;7.93;;
56455;SDS011;42354;53.218;6.564;2023-07-24T08:52:11;17.27;;;9.80;;
56455;SDS011;42354;53.218;6.564;2023-07-24T08:54:38;16.40;;;8.13;;
56455;SDS011;42354;53.218;6.564;2023-07-24T08:57:07;20.98;;;7.82;;
56455;SDS011;42354;53.218;6.564;2023-07-24T08:59:32;20.13;;;8.90;;
56455;SDS011;42354;53.218;6.564;2023-07-24T09:01:59;19.65;;;9.70;;
56455;SDS011;42354;53.218;6.564;2023-07-24T09:04:24;17.38;;;8.23;;
56455;SDS011;42354;53.218;6.564;2023-07-24T09:06:50;16.40;;;8.52;;
56455;SDS011;42354;53.218;6.564;2023-07-24T09:09:17;19.67;;;8.95;;
56455;SDS011;42354;53.218;6.564;2023-07-24T09:11:47;18.00;;;8.55;;
56455;SDS011;42354;53.218;6.564;2023-07-24T09:14:23;19.02;;;9.00;;
56455;SDS011;42354;53.218;6.564;2023-07-24T09:16:49;19.73;;;8.30;;
56455;SDS011;42354;53.218;6.564;2023-07-24T09:19:20;18.42;;;10.00;;
56455;SDS011;42354;53.218;6.564;2023-07-24T09:21:46;15.90;;;8.32;;
56455;SDS011;42354;53.218;6.564;2023-07-24T09:24:12;20.42;;;8.10;;
56455;SDS011;42354;53.218;6.564;2023-07-24T09:26:51;19.20;;;8.30;;
56455;SDS011;42354;53.218;6.564;2023-07-24T09:29:18;14.68;;;7.28;;
56455;SDS011;42354;53.218;6.564;2023-07-24T09:31:44;12.90;;;7.15;;
56455;SDS011;42354;53.218;6.564;2023-07-24T09:34:16;16.33;;;8.57;;
56455;SDS011;42354;53.218;6.564;2023-07-24T09:36:42;21.92;;;8.27;;
56455;SDS011;42354;53.218;6.564;2023-07-24T09:39:09;20.83;;;9.88;;
56455;SDS011;42354;53.218;6.564;2023-07-24T09:41:36;19.65;;;8.13;;
56455;SDS011;42354;53.218;6.564;2023-07-24T09:44:05;15.75;;;7.90;;
56455;SDS011;42354;53.218;6.564;2023-07-24T09:46:36;16.00;;;7.15;;
56455;SDS011;42354;53.218;6.564;2023-07-24T09:49:02;15.27;;;6.82;;
56455;SDS011;42354;53.218;6.564;2023-07-24T09:51:28;15.70;;;6.85;;
56455;SDS011;42354;53.218;6.564;2023-07-24T09:53:56;13.52;;;6.72;;
56455;SDS011;42354;53.218;6.564;2023-07-24T09:56:26;13.43;;;7.10;;
56455;SDS011;42354;53.218;6.564;2023-07-24T09:58:52;16.65;;;7.90;;
56455;SDS011;42354;53.218;6.564;2023-07-24T10:01:20;13.88;;;7.03;;
56455;SDS011;42354;53.218;6.564;2023-07-24T10:03:49;14.48;;;8.25;;
56455;SDS011;42354;53.218;6.564;2023-07-24T10:06:15;13.43;;;6.95;;
56455;SDS011;42354;53.218;6.564;2023-07-24T10:08:42;14.70;;;7.32;;
56455;SDS011;42354;53.218;6.564;2023-07-24T10:11:09;10.90;;;6.68;;
56455;SDS011;42354;53.218;6.564;2023-07-24T10:13:36;14.35;;;7.30;;
56455;SDS011;42354;53.218;6.564;2023-07-24T10:16:03;15.13;;;7.28;;
56455;SDS011;42354;53.218;6.564;2023-07-24T10:18:31;13.48;;;7.07;;
56455;SDS011;42354;53.218;6.564;2023-07-24T10:21:00;13.82;;;7.38;;
56455;SDS011;42354;53.218;6.564;2023-07-24T10:23:28;11.82;;;7.53;;
56455;SDS011;42354;53.218;6.564;2023-07-24T10:25:54;15.95;;;8.57;;
56455;SDS011;42354;53.218;6.564;2023-07-24T10:28:29;13.05;;;8.20;;
56455;SDS011;42354;53.218;6.564;2023-07-24T10:31:00;14.73;;;8.75;;
56455;SDS011;42354;53.218;6.564;2023-07-24T10:33:29;14.30;;;9.48;;
56455;SDS011;42354;53.218;6.564;2023-07-24T10:36:03;14.57;;;8.65;;
56455;SDS011;42354;53.218;6.564;2023-07-24T10:38:34;15.80;;;10.07;;
56455;SDS011;42354;53.218;6.564;2023-07-24T10:41:01;14.23;;;8.27;;
56455;SDS011;42354;53.218;6.564;2023-07-24T10:43:28;15.15;;;7.72;;
56455;SDS011;42354;53.218;6.564;2023-07-24T10:45:54;13.07;;;8.10;;
56455;SDS011;42354;53.218;6.564;2023-07-24T10:48:21;11.90;;;7.70;;
56455;SDS011;42354;53.218;6.564;2023-07-24T10:50:48;11.20;;;7.18;;
56455;SDS011;42354;53.218;6.564;2023-07-24T10:53:16;12.70;;;7.68;;
56455;SDS011;42354;53.218;6.564;2023-07-24T10:55:46;13.45;;;6.65;;
56455;SDS011;42354;53.218;6.564;2023-07-24T10:58:13;12.93;;;7.72;;
56455;SDS011;42354;53.218;6.564;2023-07-24T11:00:43;15.90;;;7.55;;
56455;SDS011;42354;53.218;6.564;2023-07-24T11:03:09;11.20;;;6.60;;
56455;SDS011;42354;53.218;6.564;2023-07-24T11:05:41;12.63;;;7.00;;
56455;SDS011;42354;53.218;6.564;2023-07-24T11:08:11;11.55;;;7.32;;
56455;SDS011;42354;53.218;6.564;2023-07-24T11:10:46;9.10;;;6.15;;
56455;SDS011;42354;53.218;6.564;2023-07-24T11:13:16;12.05;;;7.05;;
56455;SDS011;42354;53.218;6.564;2023-07-24T11:15:43;12.20;;;6.63;;
56455;SDS011;42354;53.218;6.564;2023-07-24T11:18:09;10.20;;;6.28;;
56455;SDS011;42354;53.218;6.564;2023-07-24T11:20:43;12.27;;;5.80;;
56455;SDS011;42354;53.218;6.564;2023-07-24T11:25:34;12.77;;;7.55;;
56455;SDS011;42354;53.218;6.564;2023-07-24T11:28:00;18.52;;;7.80;;
56455;SDS011;42354;53.218;6.564;2023-07-24T11:30:25;12.68;;;7.97;;
56455;SDS011;42354;53.218;6.564;2023-07-24T11:32:51;17.20;;;8.70;;
56455;SDS011;42354;53.218;6.564;2023-07-24T11:35:16;13.20;;;7.97;;
56455;SDS011;42354;53.218;6.564;2023-07-24T11:37:44;19.80;;;9.73;;
56455;SDS011;42354;53.218;6.564;2023-07-24T11:40:09;15.05;;;9.10;;
56455;SDS011;42354;53.218;6.564;2023-07-24T11:42:39;13.65;;;9.32;;
56455;SDS011;42354;53.218;6.564;2023-07-24T11:45:07;19.02;;;9.02;;
56455;SDS011;42354;53.218;6.564;2023-07-24T11:47:44;13.15;;;8.43;;
56455;SDS011;42354;53.218;6.564;2023-07-24T11:50:11;16.02;;;9.82;;
56455;SDS011;42354;53.218;6.564;2023-07-24T11:52:40;15.07;;;8.18;;
56455;SDS011;42354;53.218;6.564;2023-07-24T11:55:09;12.30;;;7.03;;
56455;SDS011;42354;53.218;6.564;2023-07-24T11:57:38;9.25;;;5.97;;
56455;SDS011;42354;53.218;6.564;2023-07-24T12:00:05;12.23;;;7.10;;
56455;SDS011;42354;53.218;6.564;2023-07-24T12:02:42;12.15;;;6.97;;
56455;SDS011;42354;53.218;6.564;2023-07-24T12:05:09;15.80;;;8.02;;
56455;SDS011;42354;53.218;6.564;2023-07-24T12:07:35;10.15;;;7.35;;
56455;SDS011;42354;53.218;6.564;2023-07-24T12:10:01;11.73;;;6.90;;
56455;SDS011;42354;53.218;6.564;2023-07-24T12:12:45;11.82;;;7.18;;
56455;SDS011;42354;53.218;6.564;2023-07-24T12:15:12;10.52;;;6.93;;
56455;SDS011;42354;53.218;6.564;2023-07-24T12:17:39;11.60;;;6.95;;
56455;SDS011;42354;53.218;6.564;2023-07-24T12:20:05;11.82;;;7.10;;
56455;SDS011;42354;53.218;6.564;2023-07-24T12:22:33;9.73;;;6.95;;
56455;SDS011;42354;53.218;6.564;2023-07-24T12:24:59;13.60;;;8.20;;
56455;SDS011;42354;53.218;6.564;2023-07-24T12:27:25;19.42;;;9.75;;
56455;SDS011;42354;53.218;6.564;2023-07-24T12:29:51;11.25;;;6.50;;
56455;SDS011;42354;53.218;6.564;2023-07-24T12:32:16;17.02;;;8.20;;
56455;SDS011;42354;53.218;6.564;2023-07-24T12:34:43;19.05;;;8.73;;
56455;SDS011;42354;53.218;6.564;2023-07-24T12:37:09;14.18;;;8.48;;
56455;SDS011;42354;53.218;6.564;2023-07-24T12:39:34;14.93;;;9.32;;
56455;SDS011;42354;53.218;6.564;2023-07-24T12:42:00;16.00;;;10.32;;
56455;SDS011;42354;53.218;6.564;2023-07-24T12:44:25;18.63;;;10.93;;
56455;SDS011;42354;53.218;6.564;2023-07-24T12:46:51;20.35;;;11.15;;
56455;SDS011;42354;53.218;6.564;2023-07-24T12:49:16;16.65;;;11.05;;
56455;SDS011;42354;53.218;6.564;2023-07-24T12:51:42;20.88;;;11.73;;
56455;SDS011;42354;53.218;6.564;2023-07-24T12:54:07;16.67;;;12.38;;
56455;SDS011;42354;53.218;6.564;2023-07-24T12:56:33;22.17;;;12.40;;
56455;SDS011;42354;53.218;6.564;2023-07-24T12:58:58;18.00;;;12.65;;
56455;SDS011;42354;53.218;6.564;2023-07-24T13:01:23;20.45;;;12.32;;
56455;SDS011;42354;53.218;6.564;2023-07-24T13:03:49;15.48;;;10.75;;
56455;SDS011;42354;53.218;6.564;2023-07-24T13:06:14;18.10;;;9.82;;
56455;SDS011;42354;53.218;6.564;2023-07-24T13:08:40;11.90;;;8.02;;
56455;SDS011;42354;53.218;6.564;2023-07-24T13:11:05;12.52;;;7.97;;
56455;SDS011;42354;53.218;6.564;2023-07-24T13:13:31;9.77;;;7.30;;
56455;SDS011;42354;53.218;6.564;2023-07-24T13:15:56;10.23;;;6.60;;
56455;SDS011;42354;53.218;6.564;2023-07-24T13:18:21;13.25;;;7.22;;
56455;SDS011;42354;53.218;6.564;2023-07-24T13:20:47;13.00;;;7.63;;
56455;SDS011;42354;53.218;6.564;2023-07-24T13:23:12;11.68;;;7.38;;
56455;SDS011;42354;53.218;6.564;2023-07-24T13:25:37;11.70;;;7.35;;
56455;SDS011;42354;53.218;6.564;2023-07-24T13:28:03;10.93;;;6.93;;
56455;SDS011;42354;53.218;6.564;2023-07-24T13:30:29;12.55;;;7.65;;
56455;SDS011;42354;53.218;6.564;2023-07-24T13:32:54;10.15;;;6.50;;
56455;SDS011;42354;53.218;6.564;2023-07-24T13:35:19;10.23;;;6.85;;
56455;SDS011;42354;53.218;6.564;2023-07-24T13:37:45;10.88;;;5.05;;
56455;SDS011;42354;53.218;6.564;2023-07-24T13:40:10;5.13;;;2.65;;
56455;SDS011;42354;53.218;6.564;2023-07-24T13:42:36;5.40;;;2.55;;
56455;SDS011;42354;53.218;6.564;2023-07-24T13:45:02;4.75;;;2.33;;
56455;SDS011;42354;53.218;6.564;2023-07-24T13:47:27;5.88;;;2.53;;
56455;SDS011;42354;53.218;6.564;2023-07-24T13:49:53;7.30;;;2.22;;
56455;SDS011;42354;53.218;6.564;2023-07-24T13:52:18;17.52;;;2.85;;
56455;SDS011;42354;53.218;6.564;2023-07-24T13:54:44;6.63;;;2.28;;
56455;SDS011;42354;53.218;6.564;2023-07-24T13:57:09;7.03;;;2.33;;
56455;SDS011;42354;53.218;6.564;2023-07-24T13:59:35;8.43;;;2.60;;
56455;SDS011;42354;53.218;6.564;2023-07-24T14:02:04;12.27;;;2.45;;
56455;SDS011;42354;53.218;6.564;2023-07-24T14:04:29;6.85;;;2.08;;
56455;SDS011;42354;53.218;6.564;2023-07-24T14:06:55;9.70;;;2.78;;
56455;SDS011;42354;53.218;6.564;2023-07-24T14:09:20;8.48;;;2.25;;
56455;SDS011;42354;53.218;6.564;2023-07-24T14:11:46;9.00;;;2.58;;
56455;SDS011;42354;53.218;6.564;2023-07-24T14:14:11;9.05;;;2.67;;
56455;SDS011;42354;53.218;6.564;2023-07-24T14:16:36;14.10;;;3.83;;
56455;SDS011;42354;53.218;6.564;2023-07-24T14:19:02;12.25;;;3.08;;
56455;SDS011;42354;53.218;6.564;2023-07-24T14:21:27;13.45;;;3.30;;
56455;SDS011;42354;53.218;6.564;2023-07-24T14:23:53;11.20;;;2.63;;
56455;SDS011;42354;53.218;6.564;2023-07-24T14:26:18;13.13;;;3.30;;
56455;SDS011;42354;53.218;6.564;2023-07-24T14:28:43;15.98;;;2.83;;
56455;SDS011;42354;53.218;6.564;2023-07-24T14:31:09;13.45;;;2.92;;
56455;SDS011;42354;53.218;6.564;2023-07-24T14:33:34;9.75;;;2.95;;